createdAt,value
2017-08-24T00:00:07.416Z,19.91
2017-08-24T00:05:03.900Z,19.82
2017-08-24T00:10:00.085Z,19.71
2017-08-24T00:14:55.938Z,19.71
2017-08-24T00:19:51.696Z,19.66
2017-08-24T00:24:48.947Z,19.82
2017-08-24T00:29:44.550Z,19.74
2017-08-24T00:34:40.930Z,19.86
2017-08-24T00:39:36.953Z,19.94
2017-08-24T00:44:34.059Z,20.10
2017-08-24T00:49:30.549Z,20.18
2017-08-24T00:54:26.184Z,20.13
2017-08-24T00:59:22.911Z,20.28
2017-08-24T01:04:19.316Z,20.25
2017-08-24T01:09:16.139Z,20.14
2017-08-24T01:14:11.810Z,19.89
2017-08-24T01:19:07.870Z,19.85
2017-08-24T01:24:03.768Z,19.85
2017-08-24T01:28:59.700Z,19.77
2017-08-24T01:33:56.537Z,19.71
2017-08-24T01:38:51.980Z,19.69
2017-08-24T01:43:47.774Z,19.64
2017-08-24T01:48:44.096Z,19.66
2017-08-24T01:53:40.008Z,19.70
2017-08-24T01:58:35.873Z,19.67
2017-08-24T02:03:31.641Z,19.74
2017-08-24T02:08:27.924Z,19.62
2017-08-24T02:13:24.132Z,19.69
2017-08-24T02:18:20.950Z,19.71
2017-08-24T02:23:16.610Z,19.70
2017-08-24T02:28:12.918Z,19.69
2017-08-24T02:33:09.919Z,19.71
2017-08-24T02:38:06.686Z,19.71
2017-08-24T02:43:02.184Z,19.62
2017-08-24T02:47:59.216Z,19.59
2017-08-24T02:52:55.006Z,19.59
2017-08-24T02:57:51.812Z,19.59
2017-08-24T03:02:48.342Z,19.63
2017-08-24T03:07:44.387Z,19.55
2017-08-24T03:12:40.113Z,19.49
2017-08-24T03:17:36.040Z,19.56
2017-08-24T03:22:31.935Z,19.37
2017-08-24T03:27:27.793Z,19.34
2017-08-24T03:32:24.877Z,19.40
2017-08-24T03:37:20.303Z,19.41
2017-08-24T03:42:16.186Z,19.41
2017-08-24T03:47:12.078Z,19.31
2017-08-24T03:52:07.929Z,19.40
2017-08-24T03:57:04.238Z,19.27
2017-08-24T04:02:00.085Z,19.27
2017-08-24T04:06:57.022Z,19.33
2017-08-24T04:11:52.564Z,19.31
2017-08-24T04:16:48.403Z,19.39
2017-08-24T04:21:45.123Z,19.33
2017-08-24T04:26:41.183Z,19.31
2017-08-24T04:31:37.031Z,19.19
2017-08-24T04:36:32.803Z,19.11
2017-08-24T04:41:28.680Z,19.12
2017-08-24T04:46:26.906Z,19.14
2017-08-24T04:51:22.160Z,19.09
2017-08-24T04:56:18.089Z,19.11
2017-08-24T05:01:13.805Z,19.04
2017-08-24T05:06:10.115Z,18.90
2017-08-24T05:11:06.054Z,18.96
2017-08-24T05:16:01.982Z,18.92
2017-08-24T05:20:57.553Z,18.92
2017-08-24T05:25:53.781Z,18.95
2017-08-24T05:30:49.717Z,18.96
2017-08-24T05:35:45.720Z,19.07
2017-08-24T05:40:41.688Z,18.93
2017-08-24T05:45:38.821Z,18.99
2017-08-24T05:50:34.417Z,19.09
2017-08-24T05:55:30.531Z,19.09
2017-08-24T06:00:26.412Z,19.14
2017-08-24T06:05:23.122Z,19.09
2017-08-24T06:10:18.943Z,19.02
2017-08-24T06:15:14.844Z,19.08
2017-08-24T06:20:10.831Z,18.99
2017-08-24T06:25:06.917Z,19.18
2017-08-24T06:30:02.853Z,19.11
2017-08-24T06:34:58.462Z,19.04
2017-08-24T06:39:54.388Z,19.07
2017-08-24T06:44:51.372Z,18.98
2017-08-24T06:49:46.988Z,19.04
2017-08-24T06:54:43.689Z,18.99
2017-08-24T06:59:40.492Z,18.95
2017-08-24T07:04:37.502Z,18.92
2017-08-24T07:09:33.950Z,18.84
2017-08-24T07:14:29.617Z,18.84
2017-08-24T07:19:25.225Z,18.92
2017-08-24T07:24:21.446Z,18.90
2017-08-24T07:29:17.571Z,18.98
2017-08-24T07:34:14.560Z,18.99
2017-08-24T07:39:10.738Z,19.11
2017-08-24T07:44:06.665Z,19.14
2017-08-24T07:49:02.672Z,19.14
2017-08-24T07:53:59.753Z,19.14
2017-08-24T07:58:55.166Z,19.04
2017-08-24T08:03:51.305Z,19.09
2017-08-24T08:08:48.486Z,19.02
2017-08-24T08:13:44.156Z,19.14
2017-08-24T08:18:40.097Z,19.19
2017-08-24T08:23:37.101Z,19.31
2017-08-24T08:28:32.974Z,19.39
2017-08-24T08:33:29.089Z,19.44
2017-08-24T08:38:25.612Z,19.74
2017-08-24T08:43:23.416Z,20.24
2017-08-24T08:48:19.544Z,20.31
2017-08-24T08:53:16.684Z,20.39
2017-08-24T08:58:12.576Z,20.62
2017-08-24T09:03:08.367Z,20.37
2017-08-24T09:08:04.105Z,20.65
2017-08-24T09:13:00.330Z,20.58
2017-08-24T09:17:56.508Z,20.56
2017-08-24T09:22:52.442Z,20.65
2017-08-24T09:27:49.485Z,20.65
2017-08-24T09:32:46.172Z,20.84
2017-08-24T09:37:41.820Z,21.09
2017-08-24T09:42:39.116Z,20.95
2017-08-24T09:47:36.053Z,21.27
2017-08-24T09:52:32.018Z,21.29
2017-08-24T09:57:28.491Z,21.57
2017-08-24T10:02:24.384Z,21.70
2017-08-24T10:07:20.630Z,21.67
2017-08-24T10:12:16.279Z,21.45
2017-08-24T10:17:13.130Z,21.93
2017-08-24T10:22:10.588Z,22.25
2017-08-24T10:27:05.989Z,22.15
2017-08-24T10:32:02.886Z,22.02
2017-08-24T10:36:58.869Z,22.00
2017-08-24T10:41:54.930Z,21.85
2017-08-24T10:46:50.621Z,21.73
2017-08-24T10:51:46.889Z,22.07
2017-08-24T10:56:42.768Z,22.15
2017-08-24T11:01:38.271Z,22.06
2017-08-24T11:06:34.790Z,22.13
2017-08-24T11:11:32.746Z,22.39
2017-08-24T11:16:27.758Z,22.26
2017-08-24T11:21:24.305Z,22.15
2017-08-24T11:26:20.131Z,22.07
2017-08-24T11:31:17.591Z,22.15
2017-08-24T11:36:13.359Z,22.48
2017-08-24T11:41:09.726Z,22.55
2017-08-24T11:46:07.084Z,22.78
2017-08-24T11:51:04.776Z,23.03
2017-08-24T11:56:02.366Z,23.31
2017-08-24T12:00:59.103Z,23.74
2017-08-24T12:05:55.275Z,23.65
2017-08-24T12:10:50.174Z,23.20
2017-08-24T12:15:47.163Z,23.25
2017-08-24T12:20:41.030Z,23.08
2017-08-24T12:25:35.982Z,22.85
2017-08-24T12:30:33.406Z,22.76
2017-08-24T12:35:28.773Z,22.62
2017-08-24T12:40:24.326Z,22.78
2017-08-24T12:45:20.240Z,22.73
2017-08-24T12:50:17.084Z,22.75
2017-08-24T12:55:12.662Z,22.85
2017-08-24T13:00:09.255Z,23.06
2017-08-24T13:05:06.393Z,23.10
2017-08-24T13:10:02.218Z,22.99
2017-08-24T13:14:59.234Z,23.24
2017-08-24T13:19:56.373Z,23.24
2017-08-24T13:24:52.165Z,23.23
2017-08-24T13:29:48.040Z,23.05
2017-08-24T13:34:43.781Z,23.20
2017-08-24T13:39:39.913Z,23.28
2017-08-24T13:44:36.636Z,23.23
2017-08-24T13:49:33.147Z,23.08
2017-08-24T13:54:30.094Z,23.09
2017-08-24T13:59:25.968Z,23.13
2017-08-24T14:04:21.886Z,23.25
2017-08-24T14:09:18.916Z,23.17
2017-08-24T14:14:14.985Z,23.02
2017-08-24T14:19:11.968Z,23.24
2017-08-24T14:24:07.645Z,23.25
2017-08-24T14:29:03.868Z,23.51
2017-08-24T14:34:00.218Z,23.84
2017-08-24T14:38:56.672Z,23.92
2017-08-24T14:43:52.843Z,23.91
2017-08-24T14:48:49.743Z,23.98
2017-08-24T14:53:45.477Z,23.99
2017-08-24T14:58:41.615Z,23.81
2017-08-24T15:03:37.323Z,23.58
2017-08-24T15:08:33.140Z,23.24
2017-08-24T15:13:29.123Z,23.17
2017-08-24T15:18:24.914Z,23.18
2017-08-24T15:23:20.797Z,23.31
2017-08-24T15:28:16.798Z,23.28
2017-08-24T15:33:12.738Z,23.27
2017-08-24T15:38:08.906Z,23.28
2017-08-24T15:43:05.052Z,23.31
2017-08-24T15:48:00.972Z,23.24
2017-08-24T15:52:58.972Z,23.18
2017-08-24T15:57:54.436Z,23.23
2017-08-24T16:02:50.203Z,23.10
2017-08-24T16:07:45.817Z,22.99
2017-08-24T16:12:43.645Z,22.94
2017-08-24T16:17:39.076Z,22.84
2017-08-24T16:22:34.946Z,22.84
2017-08-24T16:27:30.814Z,22.84
2017-08-24T16:32:27.601Z,22.87
2017-08-24T16:37:24.243Z,22.80
2017-08-24T16:42:19.901Z,22.80
2017-08-24T16:47:15.779Z,22.76
2017-08-24T16:52:11.713Z,22.76
2017-08-24T16:57:08.478Z,22.83
2017-08-24T17:02:03.949Z,22.55
2017-08-24T17:06:59.710Z,22.43
2017-08-24T17:11:56.495Z,22.33
2017-08-24T17:16:53.181Z,22.33
2017-08-24T17:21:50.069Z,22.22
2017-08-24T17:26:45.401Z,22.25
2017-08-24T17:31:41.569Z,22.11
2017-08-24T17:36:38.447Z,22.10
2017-08-24T17:41:34.985Z,22.07
2017-08-24T17:46:30.512Z,21.95
2017-08-24T17:51:27.356Z,21.92
2017-08-24T17:56:22.960Z,21.82
2017-08-24T18:01:18.854Z,21.73
2017-08-24T18:06:14.828Z,21.69
2017-08-24T18:11:10.872Z,21.67
2017-08-24T18:16:06.697Z,21.54
2017-08-24T18:21:02.574Z,21.50
2017-08-24T18:25:58.241Z,21.39
2017-08-24T18:30:54.159Z,21.14
2017-08-24T18:35:49.961Z,21.07
2017-08-24T18:40:47.268Z,21.00
2017-08-24T18:45:42.743Z,21.02
2017-08-24T18:50:38.732Z,20.87
2017-08-24T18:55:35.591Z,20.84
2017-08-24T19:00:31.240Z,20.70
2017-08-24T19:05:27.069Z,20.63
2017-08-24T19:10:23.715Z,20.48
2017-08-24T19:15:20.176Z,20.44
2017-08-24T19:20:17.104Z,20.44
2017-08-24T19:25:12.648Z,20.39
2017-08-24T19:30:08.688Z,20.29
2017-08-24T19:35:04.517Z,20.29
2017-08-24T19:40:00.381Z,20.24
2017-08-24T19:44:56.338Z,20.21
2017-08-24T19:49:52.274Z,20.29
2017-08-24T19:54:48.202Z,20.37
2017-08-24T19:59:44.067Z,20.37
2017-08-24T20:04:39.911Z,20.36
2017-08-24T20:09:36.726Z,20.36
2017-08-24T20:14:33.714Z,20.34
2017-08-24T20:19:30.277Z,20.28
2017-08-24T20:24:26.795Z,20.25
2017-08-24T20:29:22.748Z,20.16
2017-08-24T20:34:18.548Z,19.95
2017-08-24T20:39:14.439Z,19.99
2017-08-24T20:44:10.139Z,20.02
2017-08-24T20:49:06.033Z,19.95
2017-08-24T20:54:02.745Z,19.88
2017-08-24T20:58:58.304Z,19.71
2017-08-24T21:03:54.101Z,19.71
2017-08-24T21:08:49.976Z,19.63
2017-08-24T21:13:45.926Z,19.52
2017-08-24T21:18:42.798Z,19.52
2017-08-24T21:23:39.258Z,19.66
2017-08-24T21:28:34.846Z,19.51
2017-08-24T21:33:30.725Z,19.49
2017-08-24T21:38:26.716Z,19.39
2017-08-24T21:43:22.628Z,19.30
2017-08-24T21:48:18.452Z,19.11
2017-08-24T21:53:15.180Z,18.92
2017-08-24T21:58:10.859Z,19.02
2017-08-24T22:03:07.752Z,19.11
2017-08-24T22:08:03.371Z,19.14
2017-08-24T22:12:59.387Z,19.16
2017-08-24T22:17:55.557Z,19.11
2017-08-24T22:22:52.014Z,18.99
2017-08-24T22:27:48.147Z,19.07
2017-08-24T22:32:44.372Z,18.95
2017-08-24T22:37:40.350Z,19.04
2017-08-24T22:42:37.180Z,18.95
2017-08-24T22:47:34.054Z,18.84
2017-08-24T22:52:30.388Z,18.90
2017-08-24T22:57:27.846Z,18.89
2017-08-24T23:02:23.690Z,18.92
2017-08-24T23:07:19.507Z,18.90
2017-08-24T23:12:15.304Z,18.78
2017-08-24T23:17:12.086Z,18.68
2017-08-24T23:22:07.974Z,18.70
2017-08-24T23:27:03.566Z,18.62
2017-08-24T23:31:59.132Z,18.52
2017-08-24T23:36:55.850Z,18.41
2017-08-24T23:41:52.813Z,18.56
2017-08-24T23:46:48.306Z,18.52
2017-08-24T23:51:45.185Z,18.47
2017-08-24T23:56:41.140Z,18.55
